Time;durP1;ratioP1;P1;durP2;ratioP2;P2;SDS_P1;SDS_P2;PMS_P1;PMS_P2;Temp;Humidity;BMP_temperature;BMP_pressure;BME280_temperature;BME280_humidity;BME280_pressure;Samples;Min_cycle;Max_cycle;Signal;HPM_P1;HPM_P2
2023/01/09 00:02:14;;;;;;;;;;;;;;;-143.48;89.83;118439.88;5017497;28;20016;-70
2023/01/09 00:04:39;;;;;;;;;;;;;;;-143.48;89.72;118439.88;5017213;28;20384;-71
2023/01/09 00:07:05;;;;;;;;;;;;;;;-143.48;89.80;118439.88;5017004;28;19920;-71
2023/01/09 00:09:30;;;;;;;;;;;;;;;-143.48;90.48;118439.88;5016134;28;19917;-71
2023/01/09 00:11:55;;;;;;;;;;;;;;;-143.48;89.94;118439.88;5017546;28;20039;-70
2023/01/09 00:14:22;;;;;;;;;;;;;;;-143.48;89.65;118439.88;5016979;28;19949;-70
2023/01/09 00:16:48;;;;;;;;;;;;;;;-143.48;89.57;118439.88;5014551;28;19910;-70
2023/01/09 00:19:13;;;;;;;;;;;;;;;-143.48;89.91;118439.88;5014779;28;19916;-70
2023/01/09 00:21:38;;;;;;;;;;;;;;;-143.48;89.94;118439.88;5016291;28;19910;-70
2023/01/09 00:24:04;;;;;;;;;;;;;;;-143.48;89.73;118439.88;5016420;28;19914;-70
2023/01/09 00:26:29;;;;;;;;;;;;;;;-143.48;89.19;118439.88;5016938;28;19913;-71
2023/01/09 00:28:55;;;;;;;;;;;;;;;-143.48;89.48;118439.88;5017003;28;19949;-71
2023/01/09 00:31:20;;;;;;;;;;;;;;;-143.48;90.25;118439.88;5032482;28;20008;-70
2023/01/09 00:33:58;;;;;;;;;;;;;;;-143.48;89.46;118439.88;5016367;28;19916;-70
2023/01/09 00:36:23;;;;;;;;;;;;;;;-143.48;89.65;118439.88;5016307;28;19995;-70
2023/01/09 00:38:49;;;;;;;;;;;;;;;-143.48;89.75;118439.88;5016412;28;20399;-70
2023/01/09 00:41:17;;;;;;;;;;;;;;;-143.48;89.87;118439.88;5016393;28;20000;-70
2023/01/09 00:43:45;;;;;;;;;;;;;;;-143.48;90.01;118439.88;5016168;28;19910;-70
2023/01/09 00:46:10;;;;;;;;;;;;;;;-143.48;89.49;118439.88;5014911;28;19991;-70
2023/01/09 00:48:37;;;;;;;;;;;;;;;-143.48;89.49;118439.88;5016227;28;20358;-70
2023/01/09 00:51:02;;;;;;;;;;;;;;;-143.48;90.26;118439.88;5015752;28;19909;-70
2023/01/09 00:53:30;;;;;;;;;;;;;;;-143.48;89.91;118439.88;5015793;28;19952;-70
2023/01/09 00:55:58;;;;;;;;;;;;;;;-143.48;90.28;118439.88;5014181;28;19941;-70
2023/01/09 00:58:23;;;;;;;;;;;;;;;-143.48;90.47;118439.88;5015465;28;19910;-70
2023/01/09 01:00:49;;;;;;;;;;;;;;;-143.48;90.52;118439.88;5015750;28;19917;-70
2023/01/09 01:03:14;;;;;;;;;;;;;;;-143.48;90.20;118439.88;5015432;28;19913;-70
2023/01/09 01:08:23;;;;;;;;;;;;;;;-143.48;90.74;118439.88;5015626;28;19932;-70
2023/01/09 01:10:48;;;;;;;;;;;;;;;-143.48;91.02;118439.88;5015268;28;19909;-70
2023/01/09 01:13:14;;;;;;;;;;;;;;;-143.48;90.89;118439.88;5015414;28;19910;-70
2023/01/09 01:15:41;;;;;;;;;;;;;;;-143.48;91.15;118439.88;5014062;28;19909;-70
2023/01/09 01:18:06;;;;;;;;;;;;;;;-143.48;90.89;118439.88;5015167;28;20361;-70
2023/01/09 01:20:31;;;;;;;;;;;;;;;-143.48;91.08;118439.88;5015198;28;19920;-70
2023/01/09 01:22:56;;;;;;;;;;;;;;;-143.48;91.34;118439.88;5015422;28;19917;-70
2023/01/09 01:25:22;;;;;;;;;;;;;;;-143.48;91.14;118439.88;5015488;28;19920;-71
2023/01/09 01:27:47;;;;;;;;;;;;;;;-143.48;90.81;118439.88;5015444;28;20268;-70
2023/01/09 01:30:13;;;;;;;;;;;;;;;-143.48;91.38;118439.88;5014298;28;19909;-70
2023/01/09 01:32:39;;;;;;;;;;;;;;;-143.48;91.44;118439.88;5015117;28;19936;-70
2023/01/09 01:35:05;;;;;;;;;;;;;;;-143.48;91.29;118439.88;5014928;28;19917;-71
2023/01/09 01:37:30;;;;;;;;;;;;;;;-143.48;91.51;118439.88;5014954;28;19996;-70
2023/01/09 01:39:55;;;;;;;;;;;;;;;-143.48;92.12;118439.88;5014940;28;19959;-70
2023/01/09 01:42:21;;;;;;;;;;;;;;;-143.48;91.67;118439.88;5013901;28;20064;-69
2023/01/09 01:44:58;;;;;;;;;;;;;;;-143.48;92.47;118439.88;5014895;28;19957;-70
2023/01/09 01:47:28;;;;;;;;;;;;;;;-143.48;92.19;118439.88;5030351;28;19996;-70
2023/01/09 01:49:53;;;;;;;;;;;;;;;-143.48;92.17;118439.88;5034488;28;19976;-70
2023/01/09 01:52:19;;;;;;;;;;;;;;;-143.48;92.55;118439.88;5033640;28;19959;-70
2023/01/09 01:54:45;;;;;;;;;;;;;;;-143.48;92.29;118439.88;5034458;28;20328;-70
2023/01/09 01:57:10;;;;;;;;;;;;;;;-143.48;92.24;118439.88;5034709;28;19947;-70
2023/01/09 01:59:39;;;;;;;;;;;;;;;-143.48;92.54;118439.88;5034549;28;19951;-70
2023/01/09 02:02:05;;;;;;;;;;;;;;;-143.48;92.39;118439.88;5034597;28;19913;-70
2023/01/09 02:04:31;;;;;;;;;;;;;;;-143.48;92.30;118439.88;5034494;28;20004;-70
2023/01/09 02:06:59;;;;;;;;;;;;;;;-143.48;91.79;118439.88;5034515;28;19913;-70
2023/01/09 02:09:25;;;;;;;;;;;;;;;-143.48;91.61;118439.88;5034325;28;19908;-70
2023/01/09 02:11:55;;;;;;;;;;;;;;;-143.48;91.44;118439.88;5016427;28;19999;-70
2023/01/09 02:14:22;;;;;;;;;;;;;;;-143.48;91.46;118439.88;5034389;28;19909;-70
2023/01/09 02:16:47;;;;;;;;;;;;;;;-143.48;91.13;118439.88;5034473;28;19956;-70
2023/01/09 02:19:12;;;;;;;;;;;;;;;-143.48;91.19;118439.88;5034209;28;19916;-70
2023/01/09 02:21:40;;;;;;;;;;;;;;;-143.48;91.81;118439.88;5034464;28;19916;-70
2023/01/09 02:24:20;;;;;;;;;;;;;;;-143.48;91.60;118439.88;5034034;28;19916;-70
2023/01/09 02:27:01;;;;;;;;;;;;;;;-143.48;91.36;118439.88;5032382;28;19964;-70
2023/01/09 02:29:44;;;;;;;;;;;;;;;-143.48;91.41;118439.88;5033718;28;19913;-70
2023/01/09 02:32:15;;;;;;;;;;;;;;;-143.48;91.59;118439.88;5034381;28;20323;-69
2023/01/09 02:34:51;;;;;;;;;;;;;;;-143.48;92.16;118439.88;5034129;28;19909;-70
2023/01/09 02:37:32;;;;;;;;;;;;;;;-143.48;92.13;118439.88;5033936;28;19976;-70
2023/01/09 02:40:07;;;;;;;;;;;;;;;-143.48;92.38;118439.88;5033642;28;19909;-69
2023/01/09 02:42:34;;;;;;;;;;;;;;;-143.48;92.41;118439.88;5033735;28;19909;-69
2023/01/09 02:44:59;;;;;;;;;;;;;;;-143.48;92.49;118439.88;5033761;28;19909;-69
2023/01/09 02:47:24;;;;;;;;;;;;;;;-143.48;92.41;118439.88;5015725;28;19917;-69
2023/01/09 02:49:54;;;;;;;;;;;;;;;-143.48;92.63;118439.88;5033630;28;20319;-69
2023/01/09 02:52:38;;;;;;;;;;;;;;;-143.48;92.57;118439.88;5032422;28;19975;-69
2023/01/09 02:55:06;;;;;;;;;;;;;;;-143.48;92.89;118439.88;5033500;28;19931;-69
2023/01/09 02:57:43;;;;;;;;;;;;;;;-143.48;93.03;118439.88;5033604;28;19953;-69
2023/01/09 03:00:13;;;;;;;;;;;;;;;-143.48;92.91;118439.88;5033587;28;19909;-69
2023/01/09 03:02:48;;;;;;;;;;;;;;;-143.48;93.17;118439.88;5033537;28;19967;-70
2023/01/09 03:05:27;;;;;;;;;;;;;;;-143.48;93.25;118439.88;5031947;28;19909;-69
2023/01/09 03:07:56;;;;;;;;;;;;;;;-143.48;93.39;118439.88;5033384;28;19909;-69
2023/01/09 03:10:24;;;;;;;;;;;;;;;-143.48;93.61;118439.88;5033321;28;19936;-69
2023/01/09 03:12:51;;;;;;;;;;;;;;;-143.48;93.65;118439.88;5033366;28;19944;-69
2023/01/09 03:15:18;;;;;;;;;;;;;;;-143.48;93.81;118439.88;5033579;28;20443;-69
2023/01/09 03:17:45;;;;;;;;;;;;;;;-143.48;93.62;118439.88;5033577;28;19909;-70
2023/01/09 03:20:12;;;;;;;;;;;;;;;-143.48;94.29;118439.88;5033753;28;19950;-69
2023/01/09 03:22:38;;;;;;;;;;;;;;;-143.48;94.37;118439.88;5033403;28;20324;-70
2023/01/09 03:25:03;;;;;;;;;;;;;;;-143.48;94.22;118439.88;5033533;28;19909;-69
2023/01/09 03:27:29;;;;;;;;;;;;;;;-143.48;94.16;118439.88;5015690;28;19953;-69
2023/01/09 03:29:55;;;;;;;;;;;;;;;-143.48;94.43;118439.88;5033282;28;19909;-69
2023/01/09 03:32:20;;;;;;;;;;;;;;;-143.48;94.51;118439.88;5033183;28;19916;-69
2023/01/09 03:34:46;;;;;;;;;;;;;;;-143.48;94.60;118439.88;5033402;28;19912;-69
2023/01/09 03:37:11;;;;;;;;;;;;;;;-143.48;94.42;118439.88;5033205;28;19978;-69
2023/01/09 03:39:36;;;;;;;;;;;;;;;-143.48;94.26;118439.88;5033299;28;19963;-69
2023/01/09 03:42:01;;;;;;;;;;;;;;;-143.48;94.11;118439.88;5015539;28;19912;-70
2023/01/09 03:44:26;;;;;;;;;;;;;;;-143.48;94.31;118439.88;5015520;28;19909;-69
2023/01/09 03:46:52;;;;;;;;;;;;;;;-143.48;94.72;118439.88;5015298;28;20023;-69
2023/01/09 03:49:17;;;;;;;;;;;;;;;-143.48;94.87;118439.88;5033064;28;19959;-69
2023/01/09 03:51:43;;;;;;;;;;;;;;;-143.48;95.23;118439.88;5033137;28;19991;-69
2023/01/09 03:54:08;;;;;;;;;;;;;;;-143.48;95.32;118439.88;5036762;28;19909;-69
2023/01/09 03:56:33;;;;;;;;;;;;;;;-143.48;94.99;118439.88;5036680;28;19909;-69
2023/01/09 03:58:58;;;;;;;;;;;;;;;-143.48;95.07;118439.88;5036763;28;19909;-69
2023/01/09 04:01:24;;;;;;;;;;;;;;;-143.48;94.99;118439.88;5035131;28;19909;-69
2023/01/09 04:03:49;;;;;;;;;;;;;;;-143.48;94.90;118439.88;5036587;28;19944;-70
2023/01/09 04:06:14;;;;;;;;;;;;;;;-143.48;95.10;118439.88;5036572;28;19956;-69
2023/01/09 04:08:39;;;;;;;;;;;;;;;-143.48;95.15;118439.88;5036511;28;20284;-69
2023/01/09 04:11:04;;;;;;;;;;;;;;;-143.48;95.28;118439.88;5036323;28;19915;-69
2023/01/09 04:13:30;;;;;;;;;;;;;;;-143.48;95.23;118439.88;5036268;28;19915;-69
2023/01/09 04:15:55;;;;;;;;;;;;;;;-143.48;95.10;118439.88;5036089;28;19959;-70
2023/01/09 04:18:20;;;;;;;;;;;;;;;-143.48;95.11;118439.88;5036028;28;19931;-69
2023/01/09 04:20:46;;;;;;;;;;;;;;;-143.48;95.35;118439.88;5018308;28;20360;-69
2023/01/09 04:23:11;;;;;;;;;;;;;;;-143.48;95.16;118439.88;5035840;28;19970;-69
2023/01/09 04:25:37;;;;;;;;;;;;;;;-143.48;95.28;118439.88;5035999;28;19917;-70
2023/01/09 04:28:02;;;;;;;;;;;;;;;-143.48;95.49;118439.88;5035973;28;19931;-70
2023/01/09 04:30:27;;;;;;;;;;;;;;;-143.48;95.10;118439.88;5035876;28;20418;-70
2023/01/09 04:32:52;;;;;;;;;;;;;;;-143.48;94.64;118439.88;5018014;28;19909;-70
2023/01/09 04:35:18;;;;;;;;;;;;;;;-143.48;94.58;118439.88;5036297;28;19916;-70
2023/01/09 04:37:44;;;;;;;;;;;;;;;-143.48;94.41;118439.88;5035680;28;19916;-70
2023/01/09 04:40:10;;;;;;;;;;;;;;;-143.48;94.54;118439.88;5035941;28;20440;-70
2023/01/09 04:42:36;;;;;;;;;;;;;;;-143.48;94.30;118439.88;5035728;28;20003;-69
2023/01/09 04:45:01;;;;;;;;;;;;;;;-143.48;94.75;118439.88;5035542;28;19951;-69
2023/01/09 04:47:27;;;;;;;;;;;;;;;-143.48;93.99;118439.88;5035338;28;19917;-69
2023/01/09 04:49:52;;;;;;;;;;;;;;;-143.48;94.21;118439.88;5035585;28;19909;-70
2023/01/09 04:52:17;;;;;;;;;;;;;;;-143.48;94.09;118439.88;5035573;28;19916;-69
2023/01/09 04:54:42;;;;;;;;;;;;;;;-143.48;93.88;118439.88;5035621;28;20249;-69
2023/01/09 04:57:08;;;;;;;;;;;;;;;-143.48;93.91;118439.88;5044359;28;20448;-70
2023/01/09 04:59:33;;;;;;;;;;;;;;;-143.48;94.34;118439.88;5035898;28;19916;-69
2023/01/09 05:01:58;;;;;;;;;;;;;;;-143.48;93.84;118439.88;5035786;28;19909;-70
2023/01/09 05:04:24;;;;;;;;;;;;;;;-143.48;93.97;118439.88;5034555;28;19931;-69
2023/01/09 05:06:49;;;;;;;;;;;;;;;-143.48;93.92;118439.88;5035238;28;20003;-70
2023/01/09 05:09:14;;;;;;;;;;;;;;;-143.48;93.71;118439.88;5035190;28;19959;-70
2023/01/09 05:11:39;;;;;;;;;;;;;;;-143.48;93.07;118439.88;5035084;28;19963;-70
2023/01/09 05:14:05;;;;;;;;;;;;;;;-143.48;93.29;118439.88;5035295;28;19915;-70
2023/01/09 05:16:30;;;;;;;;;;;;;;;-143.48;93.46;118439.88;5035031;28;20335;-71
2023/01/09 05:18:56;;;;;;;;;;;;;;;-143.48;93.44;118439.88;5035106;28;20262;-70
2023/01/09 05:21:22;;;;;;;;;;;;;;;-143.48;93.48;118439.88;5035143;28;19913;-71
2023/01/09 05:23:47;;;;;;;;;;;;;;;-143.48;93.43;118439.88;5034944;28;19909;-70
2023/01/09 05:26:12;;;;;;;;;;;;;;;-143.48;93.15;118439.88;5017154;28;20269;-70
2023/01/09 05:28:38;;;;;;;;;;;;;;;-143.48;92.57;118439.88;5033516;28;19916;-70
2023/01/09 05:31:03;;;;;;;;;;;;;;;-143.48;92.55;118439.88;5035036;28;19913;-70
2023/01/09 05:33:28;;;;;;;;;;;;;;;-143.48;92.45;118439.88;5034857;28;19909;-70
2023/01/09 05:35:53;;;;;;;;;;;;;;;-143.48;92.34;118439.88;5034697;28;19959;-70
2023/01/09 05:38:19;;;;;;;;;;;;;;;-143.48;91.70;118439.88;5034977;28;19955;-70
2023/01/09 05:40:44;;;;;;;;;;;;;;;-143.48;92.17;118439.88;5034891;28;19909;-70
2023/01/09 05:43:09;;;;;;;;;;;;;;;-143.48;92.26;118439.88;5034756;28;19915;-70
2023/01/09 05:45:34;;;;;;;;;;;;;;;-143.48;92.16;118439.88;5034593;28;20020;-70
2023/01/09 05:48:00;;;;;;;;;;;;;;;-143.48;91.96;118439.88;5033737;28;19917;-69
2023/01/09 05:50:25;;;;;;;;;;;;;;;-143.48;91.65;118439.88;5034514;28;19916;-69
2023/01/09 05:52:50;;;;;;;;;;;;;;;-143.48;91.98;118439.88;5034624;28;19922;-70
2023/01/09 05:55:15;;;;;;;;;;;;;;;-143.48;91.67;118439.88;5034731;28;19915;-70
2023/01/09 05:57:41;;;;;;;;;;;;;;;-143.48;91.36;118439.88;5016550;28;19909;-69
2023/01/09 06:00:06;;;;;;;;;;;;;;;-143.48;91.51;118439.88;5034570;28;20000;-70
2023/01/09 06:02:31;;;;;;;;;;;;;;;-143.48;91.50;118439.88;5034329;28;19913;-71
2023/01/09 06:04:57;;;;;;;;;;;;;;;-143.48;91.49;118439.88;5034964;28;19967;-70
2023/01/09 06:07:22;;;;;;;;;;;;;;;-143.48;91.50;118439.88;5034746;28;19909;-70
2023/01/09 06:09:47;;;;;;;;;;;;;;;-143.48;91.42;118439.88;5034115;28;19935;-70
2023/01/09 06:12:12;;;;;;;;;;;;;;;-143.48;91.45;118439.88;5034144;28;19982;-70
2023/01/09 06:14:37;;;;;;;;;;;;;;;-143.48;91.05;118439.88;5016164;28;19932;-70
2023/01/09 06:17:02;;;;;;;;;;;;;;;-143.48;90.69;118439.88;5034089;28;19925;-70
2023/01/09 06:19:28;;;;;;;;;;;;;;;-143.48;91.01;118439.88;5034084;28;19909;-70
2023/01/09 06:21:53;;;;;;;;;;;;;;;-143.48;91.36;118439.88;5043409;28;19970;-74
2023/01/09 06:24:18;;;;;;;;;;;;;;;-143.48;91.15;118439.88;5026720;28;19915;-72
2023/01/09 06:26:43;;;;;;;;;;;;;;;-143.48;91.41;118439.88;5035063;28;19966;-70
2023/01/09 06:29:09;;;;;;;;;;;;;;;-143.48;91.81;118439.88;5036230;28;19968;-74
2023/01/09 06:31:34;;;;;;;;;;;;;;;-143.48;92.29;118439.88;5043952;28;19909;-71
2023/01/09 06:33:59;;;;;;;;;;;;;;;-143.48;91.78;118439.88;5046195;28;19932;-71
2023/01/09 06:36:25;;;;;;;;;;;;;;;-143.48;92.03;118439.88;5033047;28;19920;-71
2023/01/09 06:38:50;;;;;;;;;;;;;;;-143.48;92.32;118439.88;5031753;28;20402;-71
2023/01/09 06:41:15;;;;;;;;;;;;;;;-143.48;92.63;118439.88;5014011;28;19909;-71
2023/01/09 06:43:40;;;;;;;;;;;;;;;-143.48;92.74;118439.88;5031588;28;19909;-69
2023/01/09 06:46:06;;;;;;;;;;;;;;;-143.48;93.17;118439.88;5033445;28;19917;-69
2023/01/09 06:48:31;;;;;;;;;;;;;;;-143.48;93.58;118439.88;5035924;28;19913;-71
2023/01/09 06:50:56;;;;;;;;;;;;;;;-143.48;93.60;118439.88;5016879;28;20005;-69
2023/01/09 06:53:22;;;;;;;;;;;;;;;-143.48;93.67;118439.88;5032307;28;20095;-70
2023/01/09 06:55:47;;;;;;;;;;;;;;;-143.48;93.59;118439.88;5033494;28;19909;-70
2023/01/09 06:58:12;;;;;;;;;;;;;;;-143.48;93.43;118439.88;5033742;28;19931;-71
2023/01/09 07:00:37;;;;;;;;;;;;;;;-143.48;92.94;118439.88;5032313;28;20000;-70
2023/01/09 07:03:03;;;;;;;;;;;;;;;-143.48;92.93;118439.88;5033482;28;19928;-70
2023/01/09 07:05:29;;;;;;;;;;;;;;;-143.48;92.84;118439.88;5033432;28;19909;-71
2023/01/09 07:07:54;;;;;;;;;;;;;;;-143.48;93.05;118439.88;5033289;28;19909;-70
2023/01/09 07:10:19;;;;;;;;;;;;;;;-143.48;93.14;118439.88;5040942;28;19909;-72
2023/01/09 07:12:44;;;;;;;;;;;;;;;-143.48;93.05;118439.88;5053710;28;19909;-73
2023/01/09 07:15:10;;;;;;;;;;;;;;;-143.48;93.11;118439.88;5035548;28;19909;-71
2023/01/09 07:17:35;;;;;;;;;;;;;;;-143.48;93.44;118439.88;5035005;28;19916;-71
2023/01/09 07:20:00;;;;;;;;;;;;;;;-143.48;94.30;118439.88;5033693;28;19909;-70
2023/01/09 07:22:26;;;;;;;;;;;;;;;-143.48;95.04;118439.88;5033787;28;19932;-71
2023/01/09 07:24:51;;;;;;;;;;;;;;;-143.48;94.97;118439.88;5034048;28;19913;-70
2023/01/09 07:27:16;;;;;;;;;;;;;;;-143.48;94.86;118439.88;5039614;28;19901;-71
2023/01/09 07:29:41;;;;;;;;;;;;;;;-143.48;95.13;118439.88;5048069;28;19916;-71
2023/01/09 07:32:07;;;;;;;;;;;;;;;-143.48;95.43;118439.88;5041806;28;20017;-71
2023/01/09 07:34:32;;;;;;;;;;;;;;;-143.48;94.92;118439.88;5042763;28;19916;-70
2023/01/09 07:36:57;;;;;;;;;;;;;;;-143.48;95.13;118439.88;5020536;28;20397;-71
2023/01/09 07:39:22;;;;;;;;;;;;;;;-143.48;95.26;118439.88;5019110;28;19920;-71
2023/01/09 07:41:48;;;;;;;;;;;;;;;-143.48;95.67;118439.88;5035489;28;19909;-70
2023/01/09 07:44:13;;;;;;;;;;;;;;;-143.48;96.02;118439.88;5035556;28;19936;-71
2023/01/09 07:46:38;;;;;;;;;;;;;;;-143.48;96.10;118439.88;5036646;28;19924;-71
2023/01/09 07:49:04;;;;;;;;;;;;;;;-143.48;95.87;118439.88;5035437;28;19935;-68
2023/01/09 07:51:29;;;;;;;;;;;;;;;-143.48;95.89;118439.88;5036696;28;19952;-71
2023/01/09 07:53:54;;;;;;;;;;;;;;;-143.48;95.80;118439.88;5037043;28;19916;-71
2023/01/09 07:56:19;;;;;;;;;;;;;;;-143.48;95.83;118439.88;5036569;28;20277;-71
2023/01/09 07:58:44;;;;;;;;;;;;;;;-143.48;95.95;118439.88;5036435;28;20478;-71
2023/01/09 08:01:10;;;;;;;;;;;;;;;-143.48;95.38;118439.88;5035176;28;19992;-71
2023/01/09 08:03:35;;;;;;;;;;;;;;;-143.48;94.64;118439.88;5018625;28;20002;-71
2023/01/09 08:06:00;;;;;;;;;;;;;;;-143.48;94.38;118439.88;5036386;28;19913;-71
2023/01/09 08:08:25;;;;;;;;;;;;;;;-143.48;94.18;118439.88;5018661;28;20242;-71
2023/01/09 08:10:51;;;;;;;;;;;;;;;-143.48;95.07;118439.88;5038351;28;19915;-71
2023/01/09 08:13:16;;;;;;;;;;;;;;;-143.48;94.79;118439.88;5018955;28;19955;-71
2023/01/09 08:15:41;;;;;;;;;;;;;;;-143.48;94.51;118439.88;5036620;28;19912;-72
2023/01/09 08:18:06;;;;;;;;;;;;;;;-143.48;94.81;118439.88;5036581;28;19912;-70
2023/01/09 08:20:31;;;;;;;;;;;;;;;-143.48;95.08;118439.88;5036588;28;19936;-71
2023/01/09 08:22:57;;;;;;;;;;;;;;;-143.48;95.24;118439.88;5036636;28;19916;-71
2023/01/09 08:25:22;;;;;;;;;;;;;;;-143.48;95.46;118439.88;5036817;28;19924;-71
2023/01/09 08:27:47;;;;;;;;;;;;;;;-143.48;95.44;118439.88;5036377;28;19913;-71
2023/01/09 08:30:13;;;;;;;;;;;;;;;-143.48;95.70;118439.88;5040581;28;19908;-71
2023/01/09 08:32:40;;;;;;;;;;;;;;;-143.48;96.10;118439.88;5045880;28;20296;-71
2023/01/09 08:35:05;;;;;;;;;;;;;;;-143.48;95.98;118439.88;5047987;28;19913;-71
2023/01/09 08:37:30;;;;;;;;;;;;;;;-143.48;95.98;118439.88;5048298;28;19909;-71
2023/01/09 08:39:56;;;;;;;;;;;;;;;-143.48;96.53;118439.88;5047741;28;19912;-71
2023/01/09 08:47:49;;;;;;;;;;;;;;;-143.48;96.24;118439.88;5048422;28;19970;-71
2023/01/09 08:50:14;;;;;;;;;;;;;;;-143.48;95.20;118439.88;5049354;28;19912;-71
2023/01/09 08:52:39;;;;;;;;;;;;;;;-143.48;95.43;118439.88;5047080;28;20340;-71
2023/01/09 08:55:05;;;;;;;;;;;;;;;-143.48;95.95;118439.88;5047948;28;19909;-71
2023/01/09 08:57:30;;;;;;;;;;;;;;;-143.48;95.70;118439.88;5031205;28;19909;-71
2023/01/09 08:59:55;;;;;;;;;;;;;;;-143.48;95.51;118439.88;5048054;28;19916;-71
2023/01/09 09:02:20;;;;;;;;;;;;;;;-143.48;95.60;118439.88;5044722;28;19909;-71
2023/01/09 09:04:46;;;;;;;;;;;;;;;-143.48;96.20;118439.88;5044828;28;19909;-72
2023/01/09 09:07:12;;;;;;;;;;;;;;;-143.48;96.56;118439.88;5030935;28;19921;-71
2023/01/09 09:09:37;;;;;;;;;;;;;;;-143.48;95.83;118439.88;5048158;28;19976;-71
2023/01/09 09:12:02;;;;;;;;;;;;;;;-143.48;96.43;118439.88;5028485;28;19915;-69
2023/01/09 09:17:11;;;;;;;;;;;;;;;-143.48;95.44;118439.88;5044143;28;20375;-70
2023/01/09 09:19:38;;;;;;;;;;;;;;;-143.48;95.88;118439.88;5043584;28;19908;-69
2023/01/09 09:22:03;;;;;;;;;;;;;;;-143.48;95.76;118439.88;5044842;28;19916;-69
2023/01/09 09:24:28;;;;;;;;;;;;;;;-143.48;94.56;118439.88;5043464;28;19909;-70
2023/01/09 09:26:53;;;;;;;;;;;;;;;-143.48;94.57;118439.88;5024572;28;19920;-70
2023/01/09 09:29:19;;;;;;;;;;;;;;;-143.48;94.19;118439.88;5043721;28;19916;-69
2023/01/09 09:31:44;;;;;;;;;;;;;;;-143.48;93.49;118439.88;5043053;28;19916;-70
2023/01/09 09:34:09;;;;;;;;;;;;;;;-143.48;94.21;118439.88;5044181;28;20008;-69
2023/01/09 09:36:34;;;;;;;;;;;;;;;-143.48;96.08;118439.88;5045007;28;19919;-70
2023/01/09 09:39:01;;;;;;;;;;;;;;;-143.48;96.13;118439.88;5046660;28;20007;-70
2023/01/09 09:44:42;;;;;;;;;;;;;;;-143.48;96.27;118439.88;5046908;28;19915;-70
2023/01/09 09:47:27;;;;;;;;;;;;;;;-143.48;96.44;118439.88;5044887;28;19924;-70
2023/01/09 09:50:05;;;;;;;;;;;;;;;-143.48;96.39;118439.88;5045237;28;19939;-70
2023/01/09 09:52:30;;;;;;;;;;;;;;;-143.48;96.08;118439.88;5046952;28;19909;-70
2023/01/09 09:54:57;;;;;;;;;;;;;;;-143.48;96.67;118439.88;5040542;28;20292;-70
2023/01/09 09:57:28;;;;;;;;;;;;;;;-143.48;96.90;118439.88;5034517;28;19919;-70
2023/01/09 09:59:55;;;;;;;;;;;;;;;-143.48;97.43;118439.88;5035854;28;20008;-67
2023/01/09 10:02:26;;;;;;;;;;;;;;;-143.48;97.10;118439.88;5033930;28;20450;-67
2023/01/09 10:05:03;;;;;;;;;;;;;;;-143.48;96.88;118439.88;5034050;28;19939;-68
2023/01/09 10:07:32;;;;;;;;;;;;;;;-143.48;97.18;118439.88;5016036;28;19968;-67
2023/01/09 10:09:59;;;;;;;;;;;;;;;-143.48;96.38;118439.88;5016040;28;20292;-68
2023/01/09 10:12:27;;;;;;;;;;;;;;;-143.48;96.22;118439.88;5033683;28;19909;-67
2023/01/09 10:14:53;;;;;;;;;;;;;;;-143.48;96.40;118439.88;5033807;28;19944;-68
2023/01/09 10:17:18;;;;;;;;;;;;;;;-143.48;96.22;118439.88;5034643;28;19917;-67
2023/01/09 10:19:51;;;;;;;;;;;;;;;-143.48;95.45;118439.88;5035634;28;19909;-69
2023/01/09 10:22:19;;;;;;;;;;;;;;;-143.48;95.29;118439.88;5035282;28;19909;-68
2023/01/09 10:24:53;;;;;;;;;;;;;;;-143.48;94.48;118439.88;5034048;28;19909;-68
2023/01/09 10:27:26;;;;;;;;;;;;;;;-143.48;94.13;118439.88;5033967;28;19916;-68
2023/01/09 10:30:00;;;;;;;;;;;;;;;-143.48;91.52;118439.88;5034201;28;19979;-68
2023/01/09 10:32:37;;;;;;;;;;;;;;;-143.48;91.64;118439.88;5033985;28;19915;-68
2023/01/09 10:35:20;;;;;;;;;;;;;;;-143.48;92.50;118439.88;5033698;28;20436;-67
2023/01/09 10:37:47;;;;;;;;;;;;;;;-143.48;92.06;118439.88;5033998;28;19909;-68
2023/01/09 10:40:19;;;;;;;;;;;;;;;-143.48;91.72;118439.88;5034183;28;19913;-68
2023/01/09 10:42:47;;;;;;;;;;;;;;;-143.48;90.74;118439.88;5033715;28;19909;-67
2023/01/09 10:45:18;;;;;;;;;;;;;;;-143.48;89.47;118439.88;5033531;28;19913;-67
2023/01/09 10:47:44;;;;;;;;;;;;;;;-143.48;87.21;118439.88;5036504;28;19917;-70
2023/01/09 10:50:23;;;;;;;;;;;;;;;-143.48;86.94;118439.88;5034688;28;19909;-70
2023/01/09 10:52:49;;;;;;;;;;;;;;;-143.48;87.52;118439.88;5036566;28;19932;-72
2023/01/09 10:55:24;;;;;;;;;;;;;;;-143.48;88.58;118439.88;5037029;28;19909;-71
2023/01/09 10:57:52;;;;;;;;;;;;;;;-143.48;86.90;118439.88;5033290;28;20288;-71
2023/01/09 11:00:22;;;;;;;;;;;;;;;-143.48;85.75;118439.88;5033885;28;20361;-72
2023/01/09 11:02:47;;;;;;;;;;;;;;;-143.48;85.06;118439.88;5036711;28;19909;-71
2023/01/09 11:05:18;;;;;;;;;;;;;;;-143.48;84.45;118439.88;5037714;28;19916;-72
2023/01/09 11:07:45;;;;;;;;;;;;;;;-143.48;84.43;118439.88;5036269;28;20319;-71
2023/01/09 11:10:11;;;;;;;;;;;;;;;-143.48;85.67;118439.88;5035367;28;19915;-71
2023/01/09 11:12:36;;;;;;;;;;;;;;;-143.48;86.22;118439.88;5035558;28;20312;-71
2023/01/09 11:15:14;;;;;;;;;;;;;;;-143.48;86.06;118439.88;5017669;28;19963;-71
2023/01/09 11:17:39;;;;;;;;;;;;;;;-143.48;86.14;118439.88;5035374;28;19917;-70
2023/01/09 11:20:13;;;;;;;;;;;;;;;-143.48;86.90;118439.88;5035393;28;20372;-70
2023/01/09 11:22:43;;;;;;;;;;;;;;;-143.48;86.50;118439.88;5036601;28;19909;-71
2023/01/09 11:25:12;;;;;;;;;;;;;;;-143.48;86.47;118439.88;5037397;28;19909;-71
2023/01/09 11:27:38;;;;;;;;;;;;;;;-143.48;86.28;118439.88;5037179;28;19912;-71
2023/01/09 11:30:05;;;;;;;;;;;;;;;-143.48;84.39;118439.88;5019514;28;19920;-71
2023/01/09 11:32:31;;;;;;;;;;;;;;;-143.48;83.50;118439.88;5037296;28;19908;-71
2023/01/09 11:34:56;;;;;;;;;;;;;;;-143.48;84.28;118439.88;5037292;28;19909;-71
2023/01/09 11:37:27;;;;;;;;;;;;;;;-143.48;84.88;118439.88;5037135;28;20372;-71
2023/01/09 11:39:53;;;;;;;;;;;;;;;-143.48;85.06;118439.88;5037164;28;20423;-71
2023/01/09 11:42:50;;;;;;;;;;;;;;;-143.48;84.50;118439.88;5037107;28;19909;-71
2023/01/09 11:45:20;;;;;;;;;;;;;;;-143.48;88.12;118439.88;5036251;28;19909;-71
2023/01/09 11:47:45;;;;;;;;;;;;;;;-143.48;87.40;118439.88;5036725;28;20391;-72
2023/01/09 11:50:21;;;;;;;;;;;;;;;-143.48;86.22;118439.88;5036782;28;19909;-71
2023/01/09 11:53:06;;;;;;;;;;;;;;;-143.48;84.88;118439.88;5019149;28;20384;-72
2023/01/09 11:55:31;;;;;;;;;;;;;;;-143.48;84.30;118439.88;5036815;28;19909;-70
2023/01/09 11:57:56;;;;;;;;;;;;;;;-143.48;83.06;118439.88;5036864;28;19916;-72
2023/01/09 12:00:28;;;;;;;;;;;;;;;-143.48;85.78;118439.88;5036688;28;19913;-70
2023/01/09 12:03:11;;;;;;;;;;;;;;;-143.48;87.44;118439.88;5036298;28;19939;-70
2023/01/09 12:05:51;;;;;;;;;;;;;;;-143.48;86.56;118439.88;5036727;28;20377;-71
2023/01/09 12:08:39;;;;;;;;;;;;;;;-143.48;87.56;118439.88;5036925;28;19935;-71
2023/01/09 12:11:11;;;;;;;;;;;;;;;-143.48;88.50;118439.88;5025942;28;19909;-70
2023/01/09 12:13:45;;;;;;;;;;;;;;;-143.48;87.29;118439.88;5036509;28;20375;-70
2023/01/09 12:16:29;;;;;;;;;;;;;;;-143.48;85.90;118439.88;5036771;28;19937;-71
2023/01/09 12:19:20;;;;;;;;;;;;;;;-143.48;85.96;118439.88;5035660;28;19908;-71
2023/01/09 12:22:06;;;;;;;;;;;;;;;-143.48;87.58;118439.88;5006192;28;19974;-71
2023/01/09 12:24:47;;;;;;;;;;;;;;;-143.48;87.26;118439.88;5022648;28;19991;-70
2023/01/09 12:27:34;;;;;;;;;;;;;;;-143.48;87.40;118439.88;5036734;28;20011;-70
2023/01/09 12:30:08;;;;;;;;;;;;;;;-143.48;87.33;118439.88;5035227;28;19913;-70
2023/01/09 12:32:52;;;;;;;;;;;;;;;-143.48;78.98;118439.88;5036507;28;19909;-70
2023/01/09 12:35:17;;;;;;;;;;;;;;;-143.48;78.88;118439.88;5036235;28;19974;-71